sensor_id;sensor_type;location;lat;lon;timestamp;P1;durP1;ratioP1;P2;durP2;ratioP2
2029;SDS011;1020;48.854;8.830;2022-10-30T00:02:05;7.00;;;4.63;;
2029;SDS011;1020;48.854;8.830;2022-10-30T00:04:32;9.87;;;5.27;;
2029;SDS011;1020;48.854;8.830;2022-10-30T00:06:59;8.13;;;4.57;;
2029;SDS011;1020;48.854;8.830;2022-10-30T00:09:26;7.77;;;4.70;;
2029;SDS011;1020;48.854;8.830;2022-10-30T00:11:52;10.60;;;4.40;;
2029;SDS011;1020;48.854;8.830;2022-10-30T00:14:20;11.03;;;4.50;;
2029;SDS011;1020;48.854;8.830;2022-10-30T00:16:47;10.17;;;4.47;;
2029;SDS011;1020;48.854;8.830;2022-10-30T00:19:14;7.77;;;4.13;;
2029;SDS011;1020;48.854;8.830;2022-10-30T00:21:41;9.33;;;4.47;;
2029;SDS011;1020;48.854;8.830;2022-10-30T00:24:08;12.90;;;5.10;;
2029;SDS011;1020;48.854;8.830;2022-10-30T00:26:36;5.67;;;4.40;;
2029;SDS011;1020;48.854;8.830;2022-10-30T00:29:03;9.07;;;4.90;;
2029;SDS011;1020;48.854;8.830;2022-10-30T00:31:31;12.00;;;5.20;;
2029;SDS011;1020;48.854;8.830;2022-10-30T00:33:57;8.13;;;5.03;;
2029;SDS011;1020;48.854;8.830;2022-10-30T00:36:24;9.90;;;4.87;;
2029;SDS011;1020;48.854;8.830;2022-10-30T00:38:51;7.80;;;5.20;;
2029;SDS011;1020;48.854;8.830;2022-10-30T00:41:19;15.47;;;4.90;;
2029;SDS011;1020;48.854;8.830;2022-10-30T00:43:47;6.60;;;4.50;;
2029;SDS011;1020;48.854;8.830;2022-10-30T00:46:15;6.50;;;4.37;;
2029;SDS011;1020;48.854;8.830;2022-10-30T00:48:48;13.03;;;5.10;;
2029;SDS011;1020;48.854;8.830;2022-10-30T00:51:19;11.70;;;4.80;;
2029;SDS011;1020;48.854;8.830;2022-10-30T00:53:47;11.47;;;4.37;;
2029;SDS011;1020;48.854;8.830;2022-10-30T00:56:15;7.00;;;4.37;;
2029;SDS011;1020;48.854;8.830;2022-10-30T00:58:46;9.37;;;4.80;;
2029;SDS011;1020;48.854;8.830;2022-10-30T01:01:16;8.07;;;4.30;;
2029;SDS011;1020;48.854;8.830;2022-10-30T01:03:47;6.87;;;4.43;;
2029;SDS011;1020;48.854;8.830;2022-10-30T01:06:17;6.70;;;4.90;;
2029;SDS011;1020;48.854;8.830;2022-10-30T01:08:44;5.40;;;4.23;;
2029;SDS011;1020;48.854;8.830;2022-10-30T01:11:12;9.00;;;4.63;;
2029;SDS011;1020;48.854;8.830;2022-10-30T01:13:39;4.90;;;3.97;;
2029;SDS011;1020;48.854;8.830;2022-10-30T01:16:14;6.97;;;4.40;;
2029;SDS011;1020;48.854;8.830;2022-10-30T01:18:55;7.10;;;4.90;;
2029;SDS011;1020;48.854;8.830;2022-10-30T01:21:33;5.67;;;4.70;;
2029;SDS011;1020;48.854;8.830;2022-10-30T01:24:21;7.07;;;4.63;;
2029;SDS011;1020;48.854;8.830;2022-10-30T01:26:59;7.27;;;4.50;;
2029;SDS011;1020;48.854;8.830;2022-10-30T01:29:41;10.80;;;4.90;;
2029;SDS011;1020;48.854;8.830;2022-10-30T01:32:20;6.73;;;4.40;;
2029;SDS011;1020;48.854;8.830;2022-10-30T01:35:02;8.83;;;4.53;;
2029;SDS011;1020;48.854;8.830;2022-10-30T01:37:33;6.93;;;4.90;;
2029;SDS011;1020;48.854;8.830;2022-10-30T01:40:10;9.63;;;4.70;;
2029;SDS011;1020;48.854;8.830;2022-10-30T01:42:43;12.30;;;4.73;;
2029;SDS011;1020;48.854;8.830;2022-10-30T01:45:13;8.33;;;4.27;;
2029;SDS011;1020;48.854;8.830;2022-10-30T01:47:47;10.67;;;4.20;;
2029;SDS011;1020;48.854;8.830;2022-10-30T01:50:29;10.17;;;4.20;;
2029;SDS011;1020;48.854;8.830;2022-10-30T01:53:02;10.30;;;4.80;;
2029;SDS011;1020;48.854;8.830;2022-10-30T01:55:41;8.30;;;4.43;;
2029;SDS011;1020;48.854;8.830;2022-10-30T01:58:16;6.57;;;4.27;;
2029;SDS011;1020;48.854;8.830;2022-10-30T02:00:47;10.13;;;3.97;;
2029;SDS011;1020;48.854;8.830;2022-10-30T02:03:17;8.10;;;4.87;;
2029;SDS011;1020;48.854;8.830;2022-10-30T02:05:48;10.80;;;5.30;;
2029;SDS011;1020;48.854;8.830;2022-10-30T02:08:15;8.83;;;4.37;;
2029;SDS011;1020;48.854;8.830;2022-10-30T02:10:42;6.70;;;5.00;;
2029;SDS011;1020;48.854;8.830;2022-10-30T02:13:11;9.27;;;4.93;;
2029;SDS011;1020;48.854;8.830;2022-10-30T02:15:38;9.03;;;4.60;;
2029;SDS011;1020;48.854;8.830;2022-10-30T02:18:06;4.80;;;4.00;;
2029;SDS011;1020;48.854;8.830;2022-10-30T02:20:35;7.13;;;4.60;;
2029;SDS011;1020;48.854;8.830;2022-10-30T02:23:02;9.70;;;5.13;;
2029;SDS011;1020;48.854;8.830;2022-10-30T02:25:30;7.03;;;4.50;;
2029;SDS011;1020;48.854;8.830;2022-10-30T02:27:57;7.00;;;4.20;;
2029;SDS011;1020;48.854;8.830;2022-10-30T02:30:24;6.33;;;4.30;;
2029;SDS011;1020;48.854;8.830;2022-10-30T02:32:50;8.63;;;4.83;;
2029;SDS011;1020;48.854;8.830;2022-10-30T02:35:17;13.80;;;5.13;;
2029;SDS011;1020;48.854;8.830;2022-10-30T02:37:47;9.37;;;5.00;;
2029;SDS011;1020;48.854;8.830;2022-10-30T02:40:14;6.10;;;4.03;;
2029;SDS011;1020;48.854;8.830;2022-10-30T02:42:41;8.43;;;3.80;;
2029;SDS011;1020;48.854;8.830;2022-10-30T02:45:08;11.07;;;4.80;;
2029;SDS011;1020;48.854;8.830;2022-10-30T02:47:35;9.53;;;4.20;;
2029;SDS011;1020;48.854;8.830;2022-10-30T02:50:02;4.87;;;3.90;;
2029;SDS011;1020;48.854;8.830;2022-10-30T02:52:30;9.77;;;4.53;;
2029;SDS011;1020;48.854;8.830;2022-10-30T02:54:58;10.10;;;4.40;;
2029;SDS011;1020;48.854;8.830;2022-10-30T02:57:25;9.67;;;4.20;;
2029;SDS011;1020;48.854;8.830;2022-10-30T02:59:52;12.43;;;4.90;;
2029;SDS011;1020;48.854;8.830;2022-10-30T03:02:19;6.47;;;4.30;;
2029;SDS011;1020;48.854;8.830;2022-10-30T03:04:45;9.03;;;4.23;;
2029;SDS011;1020;48.854;8.830;2022-10-30T03:07:12;10.03;;;4.17;;
2029;SDS011;1020;48.854;8.830;2022-10-30T03:09:39;7.80;;;4.07;;
2029;SDS011;1020;48.854;8.830;2022-10-30T03:12:07;8.47;;;4.20;;
2029;SDS011;1020;48.854;8.830;2022-10-30T03:14:34;6.20;;;4.40;;
2029;SDS011;1020;48.854;8.830;2022-10-30T03:17:00;4.90;;;3.20;;
2029;SDS011;1020;48.854;8.830;2022-10-30T03:19:27;5.50;;;3.53;;
2029;SDS011;1020;48.854;8.830;2022-10-30T03:21:54;6.10;;;4.43;;
2029;SDS011;1020;48.854;8.830;2022-10-30T03:24:21;8.83;;;4.10;;
2029;SDS011;1020;48.854;8.830;2022-10-30T03:26:48;17.23;;;4.67;;
2029;SDS011;1020;48.854;8.830;2022-10-30T03:29:16;5.77;;;4.10;;
2029;SDS011;1020;48.854;8.830;2022-10-30T03:31:42;7.63;;;3.90;;
2029;SDS011;1020;48.854;8.830;2022-10-30T03:34:09;8.43;;;4.20;;
2029;SDS011;1020;48.854;8.830;2022-10-30T03:36:36;5.90;;;4.30;;
2029;SDS011;1020;48.854;8.830;2022-10-30T03:39:03;9.70;;;4.30;;
2029;SDS011;1020;48.854;8.830;2022-10-30T03:41:30;9.90;;;4.43;;
2029;SDS011;1020;48.854;8.830;2022-10-30T03:43:56;7.70;;;3.40;;
2029;SDS011;1020;48.854;8.830;2022-10-30T03:46:25;7.43;;;3.60;;
2029;SDS011;1020;48.854;8.830;2022-10-30T03:48:51;4.50;;;3.50;;
2029;SDS011;1020;48.854;8.830;2022-10-30T03:51:18;8.57;;;3.20;;
2029;SDS011;1020;48.854;8.830;2022-10-30T03:53:45;8.80;;;3.97;;
2029;SDS011;1020;48.854;8.830;2022-10-30T03:56:12;10.83;;;4.57;;
2029;SDS011;1020;48.854;8.830;2022-10-30T03:58:38;4.90;;;3.10;;
2029;SDS011;1020;48.854;8.830;2022-10-30T04:01:05;5.00;;;3.57;;
2029;SDS011;1020;48.854;8.830;2022-10-30T04:03:34;4.70;;;3.50;;
2029;SDS011;1020;48.854;8.830;2022-10-30T04:06:01;6.23;;;3.67;;
2029;SDS011;1020;48.854;8.830;2022-10-30T04:08:28;11.73;;;4.40;;
2029;SDS011;1020;48.854;8.830;2022-10-30T04:10:55;9.37;;;3.70;;
2029;SDS011;1020;48.854;8.830;2022-10-30T04:13:22;8.13;;;4.13;;
2029;SDS011;1020;48.854;8.830;2022-10-30T04:15:49;6.70;;;3.60;;
2029;SDS011;1020;48.854;8.830;2022-10-30T04:18:16;7.27;;;3.40;;
2029;SDS011;1020;48.854;8.830;2022-10-30T04:20:44;8.53;;;4.03;;
2029;SDS011;1020;48.854;8.830;2022-10-30T04:23:13;8.83;;;4.07;;
2029;SDS011;1020;48.854;8.830;2022-10-30T04:25:41;8.10;;;4.23;;
2029;SDS011;1020;48.854;8.830;2022-10-30T04:28:08;10.70;;;3.90;;
2029;SDS011;1020;48.854;8.830;2022-10-30T04:30:35;8.23;;;3.97;;
2029;SDS011;1020;48.854;8.830;2022-10-30T04:33:03;5.00;;;3.23;;
2029;SDS011;1020;48.854;8.830;2022-10-30T04:35:32;4.60;;;3.73;;
2029;SDS011;1020;48.854;8.830;2022-10-30T04:38:02;4.90;;;3.00;;
2029;SDS011;1020;48.854;8.830;2022-10-30T04:40:32;4.13;;;3.17;;
2029;SDS011;1020;48.854;8.830;2022-10-30T04:43:00;9.23;;;4.67;;
2029;SDS011;1020;48.854;8.830;2022-10-30T04:45:28;6.03;;;3.80;;
2029;SDS011;1020;48.854;8.830;2022-10-30T04:47:58;9.83;;;3.60;;
2029;SDS011;1020;48.854;8.830;2022-10-30T04:50:26;6.97;;;3.80;;
2029;SDS011;1020;48.854;8.830;2022-10-30T04:52:57;8.90;;;3.60;;
2029;SDS011;1020;48.854;8.830;2022-10-30T04:55:26;4.60;;;3.43;;
2029;SDS011;1020;48.854;8.830;2022-10-30T04:57:54;10.70;;;3.90;;
2029;SDS011;1020;48.854;8.830;2022-10-30T05:00:21;8.50;;;3.87;;
2029;SDS011;1020;48.854;8.830;2022-10-30T05:02:48;7.20;;;3.37;;
2029;SDS011;1020;48.854;8.830;2022-10-30T05:05:15;5.40;;;3.90;;
2029;SDS011;1020;48.854;8.830;2022-10-30T05:07:41;8.73;;;4.13;;
2029;SDS011;1020;48.854;8.830;2022-10-30T05:10:10;11.00;;;4.73;;
2029;SDS011;1020;48.854;8.830;2022-10-30T05:12:39;8.00;;;4.23;;
2029;SDS011;1020;48.854;8.830;2022-10-30T05:15:07;8.50;;;4.07;;
2029;SDS011;1020;48.854;8.830;2022-10-30T05:17:34;8.63;;;4.10;;
2029;SDS011;1020;48.854;8.830;2022-10-30T05:20:01;6.23;;;4.20;;
2029;SDS011;1020;48.854;8.830;2022-10-30T05:22:28;4.97;;;4.17;;
2029;SDS011;1020;48.854;8.830;2022-10-30T05:24:54;7.63;;;4.17;;
2029;SDS011;1020;48.854;8.830;2022-10-30T05:27:21;7.60;;;4.03;;
2029;SDS011;1020;48.854;8.830;2022-10-30T05:29:49;5.67;;;4.13;;
2029;SDS011;1020;48.854;8.830;2022-10-30T05:32:16;5.83;;;4.37;;
2029;SDS011;1020;48.854;8.830;2022-10-30T05:34:43;5.07;;;4.30;;
2029;SDS011;1020;48.854;8.830;2022-10-30T05:37:10;7.63;;;4.13;;
2029;SDS011;1020;48.854;8.830;2022-10-30T05:39:37;8.00;;;4.50;;
2029;SDS011;1020;48.854;8.830;2022-10-30T05:42:03;8.13;;;4.93;;
2029;SDS011;1020;48.854;8.830;2022-10-30T05:44:30;7.37;;;4.20;;
2029;SDS011;1020;48.854;8.830;2022-10-30T05:46:58;12.03;;;4.90;;
2029;SDS011;1020;48.854;8.830;2022-10-30T05:49:25;6.57;;;4.73;;
2029;SDS011;1020;48.854;8.830;2022-10-30T05:51:52;8.03;;;4.60;;
2029;SDS011;1020;48.854;8.830;2022-10-30T05:54:19;5.83;;;4.53;;
2029;SDS011;1020;48.854;8.830;2022-10-30T05:56:45;6.17;;;4.30;;
2029;SDS011;1020;48.854;8.830;2022-10-30T05:59:12;6.33;;;4.33;;
2029;SDS011;1020;48.854;8.830;2022-10-30T06:01:39;9.27;;;4.80;;
2029;SDS011;1020;48.854;8.830;2022-10-30T06:04:07;8.13;;;4.53;;
2029;SDS011;1020;48.854;8.830;2022-10-30T06:06:34;8.20;;;4.03;;
2029;SDS011;1020;48.854;8.830;2022-10-30T06:09:00;10.37;;;4.17;;
2029;SDS011;1020;48.854;8.830;2022-10-30T06:11:27;6.00;;;4.50;;
2029;SDS011;1020;48.854;8.830;2022-10-30T06:13:54;8.13;;;4.00;;
2029;SDS011;1020;48.854;8.830;2022-10-30T06:16:21;8.97;;;4.27;;
2029;SDS011;1020;48.854;8.830;2022-10-30T06:18:47;5.63;;;4.70;;
2029;SDS011;1020;48.854;8.830;2022-10-30T06:21:16;6.20;;;3.53;;
2029;SDS011;1020;48.854;8.830;2022-10-30T06:23:42;5.33;;;4.30;;
2029;SDS011;1020;48.854;8.830;2022-10-30T06:26:09;9.87;;;4.00;;
2029;SDS011;1020;48.854;8.830;2022-10-30T06:28:36;7.70;;;4.90;;
2029;SDS011;1020;48.854;8.830;2022-10-30T06:31:03;5.60;;;4.50;;
2029;SDS011;1020;48.854;8.830;2022-10-30T06:33:30;16.23;;;7.27;;
2029;SDS011;1020;48.854;8.830;2022-10-30T06:35:56;6.73;;;5.03;;
2029;SDS011;1020;48.854;8.830;2022-10-30T06:38:24;9.90;;;4.30;;
2029;SDS011;1020;48.854;8.830;2022-10-30T06:40:51;7.77;;;4.40;;
2029;SDS011;1020;48.854;8.830;2022-10-30T06:43:18;8.53;;;3.80;;
2029;SDS011;1020;48.854;8.830;2022-10-30T06:45:45;10.83;;;4.10;;
2029;SDS011;1020;48.854;8.830;2022-10-30T06:48:11;9.73;;;5.20;;
2029;SDS011;1020;48.854;8.830;2022-10-30T06:50:38;9.50;;;4.50;;
2029;SDS011;1020;48.854;8.830;2022-10-30T06:53:05;5.50;;;3.93;;
2029;SDS011;1020;48.854;8.830;2022-10-30T06:55:33;9.53;;;3.90;;
2029;SDS011;1020;48.854;8.830;2022-10-30T06:58:00;6.60;;;4.10;;
2029;SDS011;1020;48.854;8.830;2022-10-30T07:00:27;8.20;;;4.57;;
2029;SDS011;1020;48.854;8.830;2022-10-30T07:02:54;10.70;;;4.40;;
2029;SDS011;1020;48.854;8.830;2022-10-30T07:05:22;8.20;;;4.03;;
2029;SDS011;1020;48.854;8.830;2022-10-30T07:07:49;47.27;;;29.10;;
2029;SDS011;1020;48.854;8.830;2022-10-30T07:10:15;123.27;;;63.57;;
2029;SDS011;1020;48.854;8.830;2022-10-30T07:12:50;69.37;;;42.43;;
2029;SDS011;1020;48.854;8.830;2022-10-30T07:15:18;26.30;;;21.03;;
2029;SDS011;1020;48.854;8.830;2022-10-30T07:17:50;20.23;;;15.13;;
2029;SDS011;1020;48.854;8.830;2022-10-30T07:20:18;17.53;;;13.37;;
2029;SDS011;1020;48.854;8.830;2022-10-30T07:22:45;8.07;;;7.03;;
2029;SDS011;1020;48.854;8.830;2022-10-30T07:25:12;9.10;;;5.30;;
2029;SDS011;1020;48.854;8.830;2022-10-30T07:27:42;5.60;;;4.03;;
2029;SDS011;1020;48.854;8.830;2022-10-30T07:30:11;9.10;;;6.97;;
2029;SDS011;1020;48.854;8.830;2022-10-30T07:32:39;6.70;;;4.10;;
2029;SDS011;1020;48.854;8.830;2022-10-30T07:35:06;7.77;;;3.87;;
2029;SDS011;1020;48.854;8.830;2022-10-30T07:37:34;16.80;;;10.60;;
2029;SDS011;1020;48.854;8.830;2022-10-30T07:40:01;8.03;;;4.00;;
2029;SDS011;1020;48.854;8.830;2022-10-30T07:42:29;5.07;;;4.57;;
2029;SDS011;1020;48.854;8.830;2022-10-30T07:44:55;6.00;;;3.97;;
2029;SDS011;1020;48.854;8.830;2022-10-30T07:47:23;5.70;;;3.80;;
2029;SDS011;1020;48.854;8.830;2022-10-30T07:49:50;6.03;;;3.47;;
2029;SDS011;1020;48.854;8.830;2022-10-30T07:52:17;6.60;;;3.87;;
2029;SDS011;1020;48.854;8.830;2022-10-30T07:54:44;5.73;;;2.90;;
2029;SDS011;1020;48.854;8.830;2022-10-30T07:57:10;8.50;;;3.33;;
2029;SDS011;1020;48.854;8.830;2022-10-30T07:59:37;4.60;;;2.97;;
2029;SDS011;1020;48.854;8.830;2022-10-30T08:02:04;5.13;;;3.30;;
2029;SDS011;1020;48.854;8.830;2022-10-30T08:04:32;12.03;;;3.20;;
2029;SDS011;1020;48.854;8.830;2022-10-30T08:06:59;5.63;;;2.67;;
2029;SDS011;1020;48.854;8.830;2022-10-30T08:09:26;5.50;;;2.93;;
2029;SDS011;1020;48.854;8.830;2022-10-30T08:11:52;6.00;;;3.53;;
2029;SDS011;1020;48.854;8.830;2022-10-30T08:14:19;5.37;;;3.30;;
2029;SDS011;1020;48.854;8.830;2022-10-30T08:16:46;7.77;;;3.20;;
2029;SDS011;1020;48.854;8.830;2022-10-30T08:19:12;6.83;;;3.30;;
2029;SDS011;1020;48.854;8.830;2022-10-30T08:21:41;5.70;;;3.13;;
2029;SDS011;1020;48.854;8.830;2022-10-30T08:24:07;5.03;;;2.70;;
2029;SDS011;1020;48.854;8.830;2022-10-30T08:26:34;6.73;;;3.30;;
2029;SDS011;1020;48.854;8.830;2022-10-30T08:29:01;5.77;;;2.87;;
2029;SDS011;1020;48.854;8.830;2022-10-30T08:31:29;4.00;;;2.70;;
2029;SDS011;1020;48.854;8.830;2022-10-30T08:33:56;5.13;;;2.70;;
2029;SDS011;1020;48.854;8.830;2022-10-30T08:36:23;6.43;;;2.30;;
2029;SDS011;1020;48.854;8.830;2022-10-30T08:38:51;5.63;;;3.43;;
2029;SDS011;1020;48.854;8.830;2022-10-30T08:41:18;5.60;;;3.27;;
2029;SDS011;1020;48.854;8.830;2022-10-30T08:43:44;5.43;;;2.80;;
2029;SDS011;1020;48.854;8.830;2022-10-30T08:46:11;5.40;;;2.40;;
2029;SDS011;1020;48.854;8.830;2022-10-30T08:48:38;3.10;;;2.57;;
2029;SDS011;1020;48.854;8.830;2022-10-30T08:51:05;7.33;;;2.50;;
2029;SDS011;1020;48.854;8.830;2022-10-30T08:53:32;3.30;;;2.30;;
2029;SDS011;1020;48.854;8.830;2022-10-30T08:56:00;5.20;;;2.63;;
2029;SDS011;1020;48.854;8.830;2022-10-30T08:58:26;3.63;;;1.93;;
2029;SDS011;1020;48.854;8.830;2022-10-30T09:00:53;4.17;;;2.30;;
2029;SDS011;1020;48.854;8.830;2022-10-30T09:03:20;3.80;;;2.30;;
2029;SDS011;1020;48.854;8.830;2022-10-30T09:05:47;3.03;;;1.93;;
2029;SDS011;1020;48.854;8.830;2022-10-30T09:08:14;3.30;;;2.30;;
2029;SDS011;1020;48.854;8.830;2022-10-30T09:10:41;4.67;;;2.47;;
2029;SDS011;1020;48.854;8.830;2022-10-30T09:13:09;2.93;;;2.20;;
2029;SDS011;1020;48.854;8.830;2022-10-30T09:15:35;5.80;;;2.27;;
2029;SDS011;1020;48.854;8.830;2022-10-30T09:18:03;5.43;;;2.27;;
2029;SDS011;1020;48.854;8.830;2022-10-30T09:20:30;4.77;;;1.93;;
2029;SDS011;1020;48.854;8.830;2022-10-30T09:22:57;3.60;;;2.07;;
2029;SDS011;1020;48.854;8.830;2022-10-30T09:25:24;4.83;;;2.93;;
2029;SDS011;1020;48.854;8.830;2022-10-30T09:27:51;5.80;;;2.07;;
2029;SDS011;1020;48.854;8.830;2022-10-30T09:30:19;2.80;;;2.20;;
2029;SDS011;1020;48.854;8.830;2022-10-30T09:32:52;5.30;;;1.97;;
2029;SDS011;1020;48.854;8.830;2022-10-30T09:35:20;5.00;;;2.00;;
2029;SDS011;1020;48.854;8.830;2022-10-30T09:37:46;4.00;;;2.43;;
2029;SDS011;1020;48.854;8.830;2022-10-30T09:40:17;3.27;;;2.37;;
2029;SDS011;1020;48.854;8.830;2022-10-30T09:42:47;4.50;;;1.90;;
2029;SDS011;1020;48.854;8.830;2022-10-30T09:45:19;4.10;;;2.60;;
2029;SDS011;1020;48.854;8.830;2022-10-30T09:47:57;4.17;;;2.07;;
2029;SDS011;1020;48.854;8.830;2022-10-30T09:50:31;2.70;;;2.13;;
2029;SDS011;1020;48.854;8.830;2022-10-30T09:53:05;4.30;;;1.83;;
2029;SDS011;1020;48.854;8.830;2022-10-30T09:55:40;4.43;;;2.50;;
2029;SDS011;1020;48.854;8.830;2022-10-30T09:58:16;1.90;;;1.80;;
2029;SDS011;1020;48.854;8.830;2022-10-30T10:00:49;3.37;;;1.90;;
2029;SDS011;1020;48.854;8.830;2022-10-30T10:03:25;2.60;;;1.90;;
2029;SDS011;1020;48.854;8.830;2022-10-30T10:06:10;4.33;;;1.83;;
2029;SDS011;1020;48.854;8.830;2022-10-30T10:08:41;3.60;;;2.00;;
2029;SDS011;1020;48.854;8.830;2022-10-30T10:11:11;2.17;;;1.80;;
2029;SDS011;1020;48.854;8.830;2022-10-30T10:13:40;3.83;;;2.03;;
2029;SDS011;1020;48.854;8.830;2022-10-30T10:16:13;2.43;;;2.10;;
2029;SDS011;1020;48.854;8.830;2022-10-30T10:18:45;3.63;;;2.30;;
2029;SDS011;1020;48.854;8.830;2022-10-30T10:21:14;2.90;;;1.77;;
2029;SDS011;1020;48.854;8.830;2022-10-30T10:23:47;3.20;;;2.10;;
2029;SDS011;1020;48.854;8.830;2022-10-30T10:26:19;4.00;;;2.53;;
2029;SDS011;1020;48.854;8.830;2022-10-30T10:28:55;5.90;;;2.37;;
2029;SDS011;1020;48.854;8.830;2022-10-30T10:31:37;5.23;;;2.53;;
2029;SDS011;1020;48.854;8.830;2022-10-30T10:34:24;1.90;;;1.80;;
2029;SDS011;1020;48.854;8.830;2022-10-30T10:37:04;1.80;;;1.70;;
2029;SDS011;1020;48.854;8.830;2022-10-30T10:39:41;3.63;;;1.87;;
2029;SDS011;1020;48.854;8.830;2022-10-30T10:42:27;2.37;;;1.73;;
2029;SDS011;1020;48.854;8.830;2022-10-30T10:45:08;2.27;;;1.80;;
2029;SDS011;1020;48.854;8.830;2022-10-30T10:47:52;2.90;;;1.93;;
2029;SDS011;1020;48.854;8.830;2022-10-30T10:50:44;2.57;;;1.73;;
2029;SDS011;1020;48.854;8.830;2022-10-30T10:53:16;5.43;;;1.70;;
2029;SDS011;1020;48.854;8.830;2022-10-30T10:55:47;2.13;;;1.93;;
2029;SDS011;1020;48.854;8.830;2022-10-30T10:58:17;3.20;;;1.63;;
2029;SDS011;1020;48.854;8.830;2022-10-30T11:00:50;2.10;;;1.90;;
2029;SDS011;1020;48.854;8.830;2022-10-30T11:03:20;2.20;;;1.20;;
2029;SDS011;1020;48.854;8.830;2022-10-30T11:05:51;1.60;;;1.20;;
2029;SDS011;1020;48.854;8.830;2022-10-30T11:08:23;1.83;;;1.50;;
2029;SDS011;1020;48.854;8.830;2022-10-30T11:10:54;3.70;;;2.67;;
2029;SDS011;1020;48.854;8.830;2022-10-30T11:13:23;1.60;;;1.33;;
2029;SDS011;1020;48.854;8.830;2022-10-30T11:15:54;2.90;;;1.80;;
2029;SDS011;1020;48.854;8.830;2022-10-30T11:18:26;1.90;;;1.70;;
2029;SDS011;1020;48.854;8.830;2022-10-30T11:20:55;1.60;;;1.33;;
2029;SDS011;1020;48.854;8.830;2022-10-30T11:23:29;2.07;;;1.47;;
2029;SDS011;1020;48.854;8.830;2022-10-30T11:26:03;1.50;;;1.30;;
2029;SDS011;1020;48.854;8.830;2022-10-30T11:28:34;1.87;;;1.60;;
2029;SDS011;1020;48.854;8.830;2022-10-30T11:31:18;2.83;;;1.40;;
2029;SDS011;1020;48.854;8.830;2022-10-30T11:33:49;1.73;;;1.27;;
2029;SDS011;1020;48.854;8.830;2022-10-30T11:36:17;2.13;;;1.93;;
2029;SDS011;1020;48.854;8.830;2022-10-30T11:38:46;2.43;;;1.20;;
2029;SDS011;1020;48.854;8.830;2022-10-30T11:41:13;1.47;;;1.13;;
2029;SDS011;1020;48.854;8.830;2022-10-30T11:43:40;1.37;;;1.27;;
2029;SDS011;1020;48.854;8.830;2022-10-30T11:46:10;3.67;;;1.50;;
2029;SDS011;1020;48.854;8.830;2022-10-30T11:48:42;1.37;;;1.27;;
2029;SDS011;1020;48.854;8.830;2022-10-30T11:51:11;2.00;;;1.00;;
2029;SDS011;1020;48.854;8.830;2022-10-30T11:53:39;1.33;;;1.20;;
2029;SDS011;1020;48.854;8.830;2022-10-30T11:56:13;3.30;;;1.50;;
2029;SDS011;1020;48.854;8.830;2022-10-30T11:58:42;4.30;;;1.30;;
2029;SDS011;1020;48.854;8.830;2022-10-30T12:01:13;1.57;;;1.37;;
2029;SDS011;1020;48.854;8.830;2022-10-30T12:03:46;2.40;;;1.70;;
2029;SDS011;1020;48.854;8.830;2022-10-30T12:06:17;1.60;;;1.50;;
2029;SDS011;1020;48.854;8.830;2022-10-30T12:08:59;2.33;;;1.50;;
2029;SDS011;1020;48.854;8.830;2022-10-30T12:11:29;1.77;;;1.67;;
2029;SDS011;1020;48.854;8.830;2022-10-30T12:13:58;1.73;;;1.43;;
2029;SDS011;1020;48.854;8.830;2022-10-30T12:16:25;3.07;;;1.90;;
2029;SDS011;1020;48.854;8.830;2022-10-30T12:18:54;5.87;;;1.50;;
2029;SDS011;1020;48.854;8.830;2022-10-30T12:21:28;1.87;;;1.77;;
2029;SDS011;1020;48.854;8.830;2022-10-30T12:24:00;5.63;;;2.10;;
2029;SDS011;1020;48.854;8.830;2022-10-30T12:26:30;1.87;;;1.77;;
2029;SDS011;1020;48.854;8.830;2022-10-30T12:29:00;4.00;;;1.93;;
2029;SDS011;1020;48.854;8.830;2022-10-30T12:31:32;3.43;;;1.20;;
2029;SDS011;1020;48.854;8.830;2022-10-30T12:34:08;1.73;;;1.47;;
2029;SDS011;1020;48.854;8.830;2022-10-30T12:36:46;1.83;;;1.63;;
2029;SDS011;1020;48.854;8.830;2022-10-30T12:39:20;1.67;;;1.50;;
2029;SDS011;1020;48.854;8.830;2022-10-30T12:41:55;1.67;;;1.57;;
2029;SDS011;1020;48.854;8.830;2022-10-30T12:44:26;1.50;;;1.40;;
2029;SDS011;1020;48.854;8.830;2022-10-30T12:46:59;1.50;;;1.33;;
2029;SDS011;1020;48.854;8.830;2022-10-30T12:49:32;2.23;;;1.57;;
2029;SDS011;1020;48.854;8.830;2022-10-30T12:52:06;3.17;;;1.63;;
2029;SDS011;1020;48.854;8.830;2022-10-30T12:54:41;2.10;;;1.43;;
2029;SDS011;1020;48.854;8.830;2022-10-30T12:57:13;2.50;;;1.50;;
2029;SDS011;1020;48.854;8.830;2022-10-30T12:59:45;3.83;;;1.50;;
2029;SDS011;1020;48.854;8.830;2022-10-30T13:02:25;1.80;;;1.47;;
2029;SDS011;1020;48.854;8.830;2022-10-30T13:05:01;1.90;;;1.37;;
2029;SDS011;1020;48.854;8.830;2022-10-30T13:07:34;3.67;;;2.20;;
2029;SDS011;1020;48.854;8.830;2022-10-30T13:10:12;5.00;;;2.00;;
2029;SDS011;1020;48.854;8.830;2022-10-30T13:12:48;1.60;;;1.50;;
2029;SDS011;1020;48.854;8.830;2022-10-30T13:15:21;1.63;;;1.53;;
2029;SDS011;1020;48.854;8.830;2022-10-30T13:17:51;4.00;;;1.90;;
2029;SDS011;1020;48.854;8.830;2022-10-30T13:20:18;2.37;;;1.90;;
2029;SDS011;1020;48.854;8.830;2022-10-30T13:22:50;15.80;;;12.90;;
2029;SDS011;1020;48.854;8.830;2022-10-30T13:25:23;4.43;;;3.87;;
2029;SDS011;1020;48.854;8.830;2022-10-30T13:27:57;4.30;;;1.80;;
2029;SDS011;1020;48.854;8.830;2022-10-30T13:30:33;3.37;;;1.80;;
2029;SDS011;1020;48.854;8.830;2022-10-30T13:33:06;2.43;;;1.53;;
2029;SDS011;1020;48.854;8.830;2022-10-30T13:35:41;1.90;;;1.80;;
2029;SDS011;1020;48.854;8.830;2022-10-30T13:38:19;1.70;;;1.30;;
2029;SDS011;1020;48.854;8.830;2022-10-30T13:40:58;1.53;;;1.30;;
2029;SDS011;1020;48.854;8.830;2022-10-30T13:43:31;2.43;;;2.23;;
2029;SDS011;1020;48.854;8.830;2022-10-30T13:46:10;1.57;;;1.47;;
2029;SDS011;1020;48.854;8.830;2022-10-30T13:48:49;1.33;;;1.23;;
2029;SDS011;1020;48.854;8.830;2022-10-30T13:51:31;6.33;;;5.37;;
2029;SDS011;1020;48.854;8.830;2022-10-30T13:54:09;16.00;;;14.30;;
2029;SDS011;1020;48.854;8.830;2022-10-30T13:56:40;23.57;;;20.47;;
2029;SDS011;1020;48.854;8.830;2022-10-30T13:59:13;15.23;;;13.03;;
2029;SDS011;1020;48.854;8.830;2022-10-30T14:02:08;10.47;;;9.17;;
2029;SDS011;1020;48.854;8.830;2022-10-30T14:04:46;4.43;;;3.20;;
2029;SDS011;1020;48.854;8.830;2022-10-30T14:07:21;5.13;;;3.90;;
2029;SDS011;1020;48.854;8.830;2022-10-30T14:09:58;4.50;;;3.00;;
2029;SDS011;1020;48.854;8.830;2022-10-30T14:12:43;3.60;;;2.93;;
2029;SDS011;1020;48.854;8.830;2022-10-30T14:15:18;2.60;;;2.00;;
2029;SDS011;1020;48.854;8.830;2022-10-30T14:20:48;4.10;;;2.60;;
2029;SDS011;1020;48.854;8.830;2022-10-30T14:23:19;4.60;;;3.50;;
2029;SDS011;1020;48.854;8.830;2022-10-30T14:26:11;5.00;;;2.63;;
2029;SDS011;1020;48.854;8.830;2022-10-30T14:28:40;1.83;;;1.43;;
2029;SDS011;1020;48.854;8.830;2022-10-30T14:31:09;3.00;;;2.00;;
2029;SDS011;1020;48.854;8.830;2022-10-30T14:33:40;3.13;;;1.60;;
2029;SDS011;1020;48.854;8.830;2022-10-30T14:36:17;1.70;;;1.60;;
2029;SDS011;1020;48.854;8.830;2022-10-30T14:38:52;2.30;;;1.67;;
2029;SDS011;1020;48.854;8.830;2022-10-30T14:44:22;3.20;;;1.90;;
2029;SDS011;1020;48.854;8.830;2022-10-30T14:47:11;3.90;;;1.73;;
2029;SDS011;1020;48.854;8.830;2022-10-30T14:49:52;2.40;;;1.47;;
2029;SDS011;1020;48.854;8.830;2022-10-30T14:52:31;3.30;;;1.77;;
2029;SDS011;1020;48.854;8.830;2022-10-30T14:55:14;2.53;;;2.10;;
2029;SDS011;1020;48.854;8.830;2022-10-30T14:57:51;3.03;;;1.50;;
2029;SDS011;1020;48.854;8.830;2022-10-30T15:00:37;2.03;;;1.57;;
2029;SDS011;1020;48.854;8.830;2022-10-30T15:03:06;1.67;;;1.57;;
2029;SDS011;1020;48.854;8.830;2022-10-30T15:05:43;4.00;;;2.30;;
2029;SDS011;1020;48.854;8.830;2022-10-30T15:11:12;2.20;;;2.00;;
2029;SDS011;1020;48.854;8.830;2022-10-30T15:13:48;1.60;;;1.50;;
2029;SDS011;1020;48.854;8.830;2022-10-30T15:16:20;1.80;;;1.70;;
2029;SDS011;1020;48.854;8.830;2022-10-30T15:18:51;5.03;;;1.77;;
2029;SDS011;1020;48.854;8.830;2022-10-30T15:21:23;1.73;;;1.57;;
2029;SDS011;1020;48.854;8.830;2022-10-30T15:23:53;1.87;;;1.67;;
2029;SDS011;1020;48.854;8.830;2022-10-30T15:26:24;2.40;;;1.90;;
2029;SDS011;1020;48.854;8.830;2022-10-30T15:28:58;2.07;;;1.70;;
2029;SDS011;1020;48.854;8.830;2022-10-30T15:31:26;3.70;;;2.00;;
2029;SDS011;1020;48.854;8.830;2022-10-30T15:33:53;1.77;;;1.63;;
2029;SDS011;1020;48.854;8.830;2022-10-30T15:36:22;3.40;;;2.07;;
2029;SDS011;1020;48.854;8.830;2022-10-30T15:39:07;3.20;;;2.47;;
2029;SDS011;1020;48.854;8.830;2022-10-30T15:41:38;3.67;;;2.00;;